Lucas Lucero

Chefscout - Racing
29 Okt 2028
Sonntag
Verarbeitung

Persönlichkeit

Anpassungsfähigkeit (4) Ehrgeiz (16) Kontroverse (18) Loyalität (1) Druck (2) Professionalität (8) Fairness (8) Temperament (20)

Profil

Trainerstil Demokratisch
Lizenz Kontinentale Pro
Entschlossenheit 5
Menschenführung 3
Motivation 6
Disziplin 5
Arbeitszufriedenheit
100%
Ermüdung
0%
Rolle Chefscout
Gehalt 14.7K p/W
Vertrag 14.03.2029

Leistung

Verhalten Gut
Trainingseffektivität
15%
Spielerentwicklung
25%
Verletzungsprävention
20%
Taktische Umsetzung
15%

Letzte Ereignisse

Nahm an einer Scouting-Besprechung teil 7T her
Nahm an einer Scouting-Besprechung teil 14T her
Nahm an einer Scouting-Besprechung teil 21T her
Nahm an einer Scouting-Besprechung teil 28T her
Nahm an einer Scouting-Besprechung teil 35T her
Nahm an einer Scouting-Besprechung teil 42T her
Nahm an einer Scouting-Besprechung teil 49T her
Nahm an einer Scouting-Besprechung teil 56T her

Aktuell beobachtet

138
Spieler Verein Status Fähigkeit Vertrauen Beobachtet Zuletzt beobachtet Letzte Stimme
Nahuel Acosta Progreso Aktiv 104 / 88 40% 1 27.11.2026 -
Tomás Ferreyra Defensores Unidos Aktiv 99 / 99 40% 1 27.11.2026 -
Ignacio Yepez Cerrito Aktiv 111 / 114 40% 1 26.11.2026 -
Facundo Perdomo Liverpool Montevideo Aktiv 106 / 100 40% 3 25.11.2026 -
Facundo Ardiles Estudiantes Aktiv 118 / 103 40% 2 25.11.2026 -
Luis Olivera Defensores Unidos Aktiv 118 / 95 40% 1 23.11.2026 -
Juan Manuel Carrizo Chaco For Ever Aktiv 100 / 104 40% 1 22.11.2026 -
Santiago Gutiérrez Alvarado Aktiv 111 / 111 40% 1 22.11.2026 -
Gali Balanta Deportes Tolima Aktiv 85 / 104 40% 2 20.11.2026 -
Augusto Gallo Fenix Aktiv 94 / 108 40% 2 20.11.2026 -
Martín Sarrafiore O'Higgins Aktiv 122 / 107 40% 3 17.11.2026 -
Santiago Ramírez Deportivo Maldonado Aktiv 90 / 91 40% 1 17.11.2026 -
Franco Troyansky Audax Italiano Aktiv 102 / 112 40% 1 16.11.2026 -
Lawrence Ennali Houston Dynamo Aktiv 103 / 120 40% 1 16.11.2026 -
Lucas Meuli Unión de Santa Fe Aktiv 93 / 109 40% 2 15.11.2026 -
Agustín Chopitea Colon Aktiv 97 / 108 40% 1 14.11.2026 -
Sebastián Tormo Deportivo Maldonado Aktiv 87 / 90 40% 1 14.11.2026 -
Anderson Brum Tacuarembo Aktiv 86 / 86 40% 1 13.11.2026 -
Facundo Melillán Güemes Aktiv 112 / 121 40% 1 13.11.2026 -
Adrián Acosta Portuguesa Aktiv 83 / 92 40% 1 13.11.2026 -
Federico Viera Artigas Aktiv 63 / 77 40% 2 12.11.2026 -
Fernando Camarda Central Espanol Aktiv 105 / 109 40% 1 11.11.2026 -
Nicolás Henry Tristán Suárez Aktiv 107 / 107 40% 1 10.11.2026 -
Maicol Ferreira Danubio Aktiv 108 / 108 40% 1 09.11.2026 -
Elías Ayala Madryn Aktiv 100 / 107 40% 1 09.11.2026 -
Jonathan Villagra Colo-Colo Aktiv 111 / 111 40% 1 08.11.2026 -
Miguel Silva Carabobo Aktiv 106 / 97 40% 3 07.11.2026 -
Matías Vera Nueva Chicago Aktiv 109 / 93 40% 1 07.11.2026 -
Agustín Aguirre Boston River Aktiv 98 / 96 40% 1 07.11.2026 -
Fabián Palomino Ayacucho Aktiv 89 / 84 40% 1 06.11.2026 -
Lucas Ymbert Uruguay Montevideo Aktiv 95 / 87 40% 1 06.11.2026 -
Guido Sosa Atenas Aktiv 91 / 113 40% 2 05.11.2026 -
Luciano Jachfe Nueva Chicago Aktiv 116 / 125 40% 3 05.11.2026 -
Braian Aranda Agropecuario Argentino Aktiv 109 / 123 40% 1 05.11.2026 -
Yael Delgado Queretaro Aktiv 64 / 69 40% 1 04.11.2026 -
Juan Moreno La Luz Aktiv 106 / 128 40% 2 03.11.2026 -
Aldo Pérez Guarani Aktiv 100 / 121 40% 1 03.11.2026 -
Nahuel Pezzini Arsenal Aktiv 120 / 120 40% 1 01.11.2026 -
Diego Villalba Plaza Colonia Aktiv 107 / 87 40% 1 01.11.2026 -
Francisco Funes Los Andes Aktiv 106 / 86 40% 1 01.11.2026 -
Matías Bazzi Talleres Aktiv 105 / 111 40% 1 31.10.2026 -
Diego Carreño O'Higgins Aktiv 79 / 95 40% 2 30.10.2026 -
Facundo Silvera Montevideo City Torque Aktiv 102 / 93 40% 3 30.10.2026 -
Facundo Silvestre Uruguay Montevideo Aktiv 91 / 105 40% 1 30.10.2026 -
Gonzalo Silva Progreso Aktiv 97 / 115 40% 2 28.10.2026 -
Bastián Yáñez O'Higgins Aktiv 114 / 104 40% 1 26.10.2026 -
Camilo Machado Madryn Aktiv 111 / 117 40% 1 26.10.2026 -
Santiago Briñone San Martín Aktiv 100 / 121 40% 1 24.10.2026 -
Emiliano Bermúdez Oriental Aktiv 96 / 104 40% 2 23.10.2026 -
Ángel Espínola Sportivo Luqueno Aktiv 105 / 94 40% 1 23.10.2026 -
Fabrizio Correa Juventud Aktiv 127 / 108 40% 1 22.10.2026 -
Cristhofer Mesías Universidad de Concepcion Aktiv 107 / 92 40% 1 21.10.2026 -
Ignacio Rodríguez Central Espanol Aktiv 100 / 119 40% 1 21.10.2026 -
Ignacio Núñez Union Espanola Aktiv 99 / 94 40% 1 20.10.2026 -
Pedro Silva Torrejón Gimnasia La Plata Aktiv 128 / 111 40% 1 19.10.2026 -
Yamil García Rampla Juniors Aktiv 94 / 95 40% 1 19.10.2026 -
Jeremías Rodríguez Puch Atlanta Aktiv 97 / 116 40% 1 18.10.2026 -
Matías Bergara Nueva Chicago Aktiv 120 / 127 40% 1 16.10.2026 -
Milton Gerez Güemes Aktiv 96 / 101 40% 1 16.10.2026 -
Emiliano Ancheta Nacional Aktiv 127 / 107 40% 1 15.10.2026 -
Ian Wisdom Sporting Cristal Aktiv 90 / 112 40% 1 14.10.2026 -
Alexis Sinisterra Sol de America Aktiv 71 / 95 40% 1 13.10.2026 -
Vasco Espejo Alianza Lima Aktiv 78 / 84 40% 1 11.10.2026 -
Enzo Cabrera Danubio Aktiv 118 / 122 40% 1 11.10.2026 -
Franco Martínez Artigas Aktiv 96 / 87 40% 3 10.10.2026 -
Agustín Benítez Defensores Aktiv 123 / 112 40% 1 10.10.2026 -
Tomás Castro Ponce Atlanta Aktiv 110 / 113 40% 1 09.10.2026 -
Joaquín Trasante Danubio Aktiv 116 / 105 40% 2 07.10.2026 -
Iván Chaves Patronato Aktiv 88 / 105 40% 1 07.10.2026 -
Nahuel González Alvarado Aktiv 95 / 110 40% 3 06.10.2026 -
Brian Calderara Chacarita Juniors Aktiv 122 / 131 40% 1 06.10.2026 -
Aldhy Valencia Cesar Vallejo Aktiv 69 / 80 40% 1 05.10.2026 -
Emiliano Jourdan Cerro Largo Aktiv 99 / 98 40% 1 02.10.2026 -
Jairo Amaro Cerro Aktiv 104 / 114 40% 1 02.10.2026 -
Santiago Direnna Miramar Misiones Aktiv 64 / 80 40% 1 01.10.2026 -
Kevin Lewis Liverpool Montevideo Aktiv 109 / 99 40% 1 01.10.2026 -
Elías Villar Nacional Aktiv 77 / 85 40% 2 28.09.2026 -
Nicolás Rossi Juventud Aktiv 115 / 112 40% 3 27.09.2026 -
Oscar Meza Portuguesa Aktiv 97 / 82 40% 1 27.09.2026 -
Emiliano González Almagro Aktiv 116 / 111 40% 1 26.09.2026 -
Santiago Roggero Gimnasia y Esgrima Aktiv 101 / 119 40% 1 25.09.2026 -
Alejandro Gonzalez Atletico Venezuela Aktiv 63 / 90 40% 1 25.09.2026 -
Isaac Méndez Central Espanol Aktiv 108 / 94 40% 1 25.09.2026 -
Julio López Defensores Unidos Aktiv 113 / 101 40% 1 25.09.2026 -
Nicolás Fernandez Universidad de Chile Aktiv 103 / 107 40% 2 23.09.2026 -
Francisco Facello Chacarita Juniors Aktiv 102 / 106 40% 1 23.09.2026 -
Francisco Casanova Cerrito Aktiv 106 / 93 40% 2 22.09.2026 -
Agustín Solari 12 de Octubre Aktiv 89 / 92 40% 1 22.09.2026 -
Kevin Castro Bogota Aktiv 94 / 89 40% 1 21.09.2026 -
Maico Quiroz Güemes Aktiv 118 / 121 40% 2 20.09.2026 -
Agustín Olavarría Colon Aktiv 96 / 103 40% 1 20.09.2026 -
Luis Barbat Cerrito Aktiv 83 / 85 40% 1 20.09.2026 -
Franco Quinteros Estudiantes Aktiv 119 / 111 40% 1 20.09.2026 -
Brahian Cuello Unión de Santa Fe Aktiv 108 / 115 40% 1 19.09.2026 -
Jhojan Torres Santa Fe Aktiv 115 / 108 40% 1 18.09.2026 -
Adrián Montañez Deportivo Tachira Aktiv 93 / 112 40% 1 17.09.2026 -
Sebastián Giraldo Depor Aktiv 74 / 89 40% 2 16.09.2026 -
Claudio Torres Huachipato Aktiv 104 / 98 40% 1 16.09.2026 -
Dylan Lozano Aguilas Doradas Aktiv 110 / 97 40% 1 16.09.2026 -
Gastón Vega Artigas Aktiv 73 / 88 40% 1 14.09.2026 -
Luis Corredor Zulia Aktiv 87 / 88 40% 1 14.09.2026 -
Juan Díaz Universidad Catolica Aktiv 115 / 116 40% 1 12.09.2026 -
Gonzalo Gamarra Defensores Aktiv 120 / 120 40% 1 12.09.2026 -
Antonio Martínez Cerro Porteno Aktiv 90 / 89 40% 1 12.09.2026 -
Juan Esteban Gallego Once Caldas Aktiv 82 / 96 40% 1 11.09.2026 -
Felipe Espinoza Iquique Aktiv 85 / 88 40% 1 10.09.2026 -
Juan Camilo Mosquera Atletico Bucaramanga Aktiv 117 / 128 40% 1 10.09.2026 -
Martín Ginzo Deportivo Maldonado Aktiv 110 / 100 40% 1 10.09.2026 -
Gabriel Chocobar Oriental Aktiv 91 / 105 40% 1 07.09.2026 -
Roameth Romaña Llaneros Aktiv 106 / 88 40% 2 06.09.2026 -
Francisco Mongelos Sportivo Luqueno Aktiv 83 / 91 40% 3 04.09.2026 -
Esteban Glellel Quilmes Aktiv 115 / 114 40% 1 03.09.2026 -
Agustín Requena Progreso Aktiv 111 / 111 40% 1 02.09.2026 -
Nicolás Forastiero Deportivo Maldonado Aktiv 92 / 94 40% 2 30.08.2026 -
Carlos Romaña Atletico Bucaramanga Aktiv 108 / 99 40% 1 30.08.2026 -
Santiago Cuero Fortaleza CEIF Aktiv 104 / 102 40% 1 24.08.2026 -
Aldair Gutiérrez Atletico Bucaramanga Aktiv 122 / 126 40% 1 24.08.2026 -
Santiago Costa Albion Aktiv 115 / 120 40% 1 23.08.2026 -
Cristián Díaz Antofagasta Aktiv 83 / 106 40% 1 23.08.2026 -
Omar Mireles Veracruz Aktiv 97 / 113 40% 1 20.08.2026 -
Rodrigo Melgarejo Nacional Aktiv 105 / 84 40% 1 20.08.2026 -
Marber Suárez Zulia Aktiv 84 / 84 40% 1 19.08.2026 -
Maximiliano Zelaya Miramar Misiones Aktiv 81 / 107 40% 1 19.08.2026 -
Germán Peralta La Luz Aktiv 104 / 94 40% 1 16.08.2026 -
Ángel Maciel Tacuarembo Aktiv 104 / 106 40% 1 13.08.2026 -
Agustín Pérez Juventud Aktiv 83 / 108 40% 1 11.08.2026 -
Leandro Umpiérrez Penarol Aktiv 114 / 117 40% 1 10.08.2026 -
Adrián Vila Rampla Juniors Aktiv 95 / 97 40% 1 10.08.2026 -
Yeferson Moreno Barranquilla Aktiv 104 / 124 40% 1 09.08.2026 -
Christopher Montaña Portuguesa Aktiv 88 / 92 40% 1 09.08.2026 -
Facundo Briñón Atenas Aktiv 89 / 90 40% 1 08.08.2026 -
Nicolás Lara Tigres Aktiv 107 / 112 40% 1 07.08.2026 -
Mateo Rivero Boston River Aktiv 102 / 112 40% 1 06.08.2026 -
Alexander Hernández Racing Aktiv 86 / 99 40% 1 06.08.2026 -
Lucas Bassadone Atenas Aktiv 81 / 90 40% 1 05.08.2026 -
Pablo Cardona Cortulua Aktiv 115 / 109 40% 1 05.08.2026 -
Joiner Moreno Real Cartagena Aktiv 98 / 96 40% 1 03.08.2026 -
Juan González River Plate Aktiv 75 / 71 40% 1 03.08.2026 -